createdAt,value
2023-04-02T00:00:01.241Z,99.99
2023-04-02T00:01:01.236Z,99.99
2023-04-02T00:02:01.280Z,99.99
2023-04-02T00:03:01.345Z,99.99
2023-04-02T00:04:01.227Z,99.99
2023-04-02T00:05:01.194Z,99.99
2023-04-02T00:06:01.197Z,99.99
2023-04-02T00:07:01.169Z,99.99
2023-04-02T00:08:01.169Z,99.99
2023-04-02T00:09:01.132Z,99.99
2023-04-02T00:10:01.114Z,99.99
2023-04-02T00:11:01.135Z,99.99
2023-04-02T00:12:01.119Z,99.99
2023-04-02T00:13:01.105Z,99.99
2023-04-02T00:14:01.096Z,99.99
2023-04-02T00:15:01.073Z,99.99
2023-04-02T00:16:01.075Z,99.99
2023-04-02T00:17:01.072Z,99.99
2023-04-02T00:18:01.035Z,99.99
2023-04-02T00:19:01.033Z,99.99
2023-04-02T00:20:01.021Z,99.99
2023-04-02T00:21:01.007Z,99.99
2023-04-02T00:22:01.026Z,99.99
2023-04-02T00:23:00.981Z,99.99
2023-04-02T00:24:00.997Z,99.99
2023-04-02T00:25:00.968Z,99.99
2023-04-02T00:26:00.951Z,99.99
2023-04-02T00:27:00.945Z,99.99
2023-04-02T00:28:00.965Z,99.99
2023-04-02T00:29:00.930Z,99.99
2023-04-02T00:30:00.963Z,99.99
2023-04-02T00:31:00.890Z,99.99
2023-04-02T00:32:00.886Z,99.99
2023-04-02T00:33:00.904Z,99.99
2023-04-02T00:34:00.873Z,99.99
2023-04-02T00:35:00.875Z,99.99
2023-04-02T00:36:00.857Z,99.99
2023-04-02T00:37:00.838Z,99.99
2023-04-02T00:38:00.854Z,99.99
2023-04-02T00:39:00.806Z,99.96
2023-04-02T00:40:00.818Z,99.99
2023-04-02T00:41:00.772Z,99.99
2023-04-02T00:42:00.764Z,99.99
2023-04-02T00:43:00.775Z,99.99
2023-04-02T00:44:00.766Z,99.99
2023-04-02T00:45:00.812Z,99.99
2023-04-02T00:46:00.763Z,99.99
2023-04-02T00:47:00.770Z,99.99
2023-04-02T00:48:00.749Z,99.99
2023-04-02T00:49:00.756Z,99.96
2023-04-02T00:50:00.683Z,99.96
2023-04-02T00:51:00.694Z,99.99
2023-04-02T00:52:00.683Z,99.99
2023-04-02T00:53:00.674Z,99.99
2023-04-02T00:54:00.648Z,99.99
2023-04-02T00:55:00.690Z,99.99
2023-04-02T00:56:00.629Z,99.99
2023-04-02T00:57:00.642Z,99.99
2023-04-02T00:58:00.609Z,99.99
2023-04-02T00:59:00.570Z,99.99
2023-04-02T01:00:00.595Z,99.96
2023-04-02T01:01:00.571Z,99.99
2023-04-02T01:02:00.547Z,99.99
2023-04-02T01:03:00.661Z,99.99
2023-04-02T01:04:00.532Z,99.99
2023-04-02T01:05:00.507Z,99.99
2023-04-02T01:06:00.496Z,99.99
2023-04-02T01:07:00.492Z,99.99
2023-04-02T01:08:00.509Z,99.99
2023-04-02T01:09:00.473Z,99.99
2023-04-02T01:10:00.471Z,99.99
2023-04-02T01:11:00.438Z,99.99
2023-04-02T01:12:00.420Z,99.99
2023-04-02T01:13:00.407Z,99.99
2023-04-02T01:14:00.430Z,99.99
2023-04-02T01:15:00.407Z,99.99
2023-04-02T01:16:00.396Z,99.99
2023-04-02T01:17:00.375Z,99.99
2023-04-02T01:18:00.423Z,99.99
2023-04-02T01:19:00.358Z,99.99
2023-04-02T01:20:00.355Z,99.96
2023-04-02T01:21:00.332Z,99.99
2023-04-02T01:22:00.308Z,99.86
2023-04-02T01:23:00.330Z,99.50
2023-04-02T01:24:00.294Z,99.09
2023-04-02T01:25:00.283Z,99.19
2023-04-02T01:26:00.299Z,99.70
2023-04-02T01:27:00.265Z,99.60
2023-04-02T01:28:00.248Z,99.34
2023-04-02T01:29:00.250Z,99.24
2023-04-02T01:30:00.221Z,99.13
2023-04-02T01:31:00.253Z,99.44
2023-04-02T01:32:00.208Z,99.34
2023-04-02T01:33:00.223Z,99.44
2023-04-02T01:34:00.207Z,99.54
2023-04-02T01:35:00.176Z,99.54
2023-04-02T01:36:00.198Z,99.34
2023-04-02T01:37:00.139Z,99.59
2023-04-02T01:38:00.149Z,99.59
2023-04-02T01:39:00.155Z,99.59
2023-04-02T01:40:00.102Z,99.28
2023-04-02T01:41:00.131Z,99.18
2023-04-02T01:42:00.112Z,99.59
2023-04-02T01:43:00.103Z,99.28
2023-04-02T01:44:00.090Z,99.38
2023-04-02T01:45:00.064Z,99.99
2023-04-02T01:46:00.098Z,99.90
2023-04-02T01:47:00.021Z,99.28
2023-04-02T01:48:00.079Z,99.59
2023-04-02T01:49:00.017Z,99.79
2023-04-02T01:49:59.993Z,99.79
2023-04-02T01:50:59.994Z,99.38
2023-04-02T01:51:59.973Z,99.59
2023-04-02T01:52:59.968Z,99.63
2023-04-02T01:53:59.993Z,99.79
2023-04-02T01:54:59.953Z,99.54
2023-04-02T01:55:59.950Z,99.84
2023-04-02T01:56:59.988Z,99.69
2023-04-02T01:57:59.929Z,99.74
2023-04-02T01:58:59.902Z,99.43
2023-04-02T01:59:59.873Z,99.74
2023-04-02T02:00:59.915Z,99.43
2023-04-02T02:01:59.865Z,99.74
2023-04-02T02:02:59.865Z,99.22
2023-04-02T02:03:59.867Z,99.33
2023-04-02T02:04:59.822Z,99.58
2023-04-02T02:05:59.861Z,98.96
2023-04-02T02:06:59.801Z,99.12
2023-04-02T02:07:59.783Z,98.71
2023-04-02T02:08:59.783Z,98.96
2023-04-02T02:09:59.776Z,98.92
2023-04-02T02:10:59.746Z,99.02
2023-04-02T02:11:59.760Z,98.41
2023-04-02T02:12:59.726Z,98.55
2023-04-02T02:13:59.764Z,98.66
2023-04-02T02:14:59.708Z,98.82
2023-04-02T02:15:59.905Z,98.82
2023-04-02T02:16:59.698Z,99.38
2023-04-02T02:17:59.749Z,99.12
2023-04-02T02:18:59.662Z,99.02
2023-04-02T02:19:59.653Z,99.22
2023-04-02T02:20:59.657Z,98.55
2023-04-02T02:21:59.635Z,98.66
2023-04-02T02:22:59.619Z,98.55
2023-04-02T02:23:59.643Z,98.86
2023-04-02T02:24:59.608Z,98.55
2023-04-02T02:25:59.673Z,98.35
2023-04-02T02:26:59.574Z,98.35
2023-04-02T02:27:59.581Z,98.55
2023-04-02T02:28:59.580Z,98.66
2023-04-02T02:29:59.566Z,97.94
2023-04-02T02:30:59.539Z,97.73
2023-04-02T02:31:59.540Z,97.73
2023-04-02T02:32:59.569Z,97.73
2023-04-02T02:33:59.512Z,97.73
2023-04-02T02:34:59.522Z,98.04
2023-04-02T02:35:59.522Z,98.14
2023-04-02T02:36:59.483Z,97.53
2023-04-02T02:37:59.448Z,97.02
2023-04-02T02:38:59.445Z,97.57
2023-04-02T02:39:59.479Z,96.95
2023-04-02T02:40:59.426Z,97.22
2023-04-02T02:41:59.421Z,97.37
2023-04-02T02:42:59.407Z,97.02
2023-04-02T02:43:59.389Z,96.81
2023-04-02T02:44:59.396Z,96.75
2023-04-02T02:45:59.455Z,96.85
2023-04-02T02:46:59.355Z,96.55
2023-04-02T02:47:59.385Z,96.85
2023-04-02T02:48:59.357Z,96.34
2023-04-02T02:49:59.354Z,97.06
2023-04-02T02:50:59.295Z,96.90
2023-04-02T02:51:59.295Z,97.16
2023-04-02T02:52:59.297Z,96.85
2023-04-02T02:53:59.279Z,96.85
2023-04-02T02:54:59.281Z,96.44
2023-04-02T02:55:59.260Z,97.20
2023-04-02T02:56:59.257Z,97.06
2023-04-02T02:57:59.228Z,96.85
2023-04-02T02:58:59.220Z,97.31
2023-04-02T02:59:59.208Z,96.23
2023-04-02T03:00:59.240Z,96.23
2023-04-02T03:01:59.218Z,96.75
2023-04-02T03:02:59.287Z,96.75
2023-04-02T03:03:59.338Z,96.48
2023-04-02T03:04:59.141Z,96.55
2023-04-02T03:05:59.157Z,96.85
2023-04-02T03:06:59.123Z,96.59
2023-04-02T03:07:59.131Z,96.75
2023-04-02T03:08:59.114Z,96.14
2023-04-02T03:09:59.082Z,96.85
2023-04-02T03:10:59.090Z,96.80
2023-04-02T03:11:59.071Z,96.65
2023-04-02T03:12:59.059Z,95.87
2023-04-02T03:13:59.049Z,95.72
2023-04-02T03:14:59.042Z,95.77
2023-04-02T03:15:59.065Z,95.87
2023-04-02T03:16:59.014Z,96.08
2023-04-02T03:17:59.081Z,95.87
2023-04-02T03:18:58.986Z,95.87
2023-04-02T03:19:58.972Z,95.77
2023-04-02T03:20:58.969Z,95.67
2023-04-02T03:21:58.980Z,95.56
2023-04-02T03:22:58.935Z,95.97
2023-04-02T03:23:58.931Z,95.25
2023-04-02T03:24:58.932Z,95.30
2023-04-02T03:25:58.920Z,95.40
2023-04-02T03:26:58.943Z,96.18
2023-04-02T03:27:58.896Z,96.02
2023-04-02T03:28:58.867Z,96.22
2023-04-02T03:29:58.877Z,96.18
2023-04-02T03:30:58.890Z,96.12
2023-04-02T03:31:58.856Z,96.22
2023-04-02T03:32:58.876Z,96.22
2023-04-02T03:33:58.844Z,96.33
2023-04-02T03:34:58.803Z,95.92
2023-04-02T03:35:58.858Z,96.22
2023-04-02T03:36:58.797Z,95.50
2023-04-02T03:37:58.802Z,95.71
2023-04-02T03:38:59.716Z,96.12
2023-04-02T03:39:58.778Z,95.81
2023-04-02T03:40:58.739Z,95.81
2023-04-02T03:41:58.758Z,96.12
2023-04-02T03:42:58.729Z,96.22
2023-04-02T03:43:58.704Z,96.22
2023-04-02T03:44:58.698Z,95.40
2023-04-02T03:45:58.841Z,95.81
2023-04-02T03:46:58.684Z,96.06
2023-04-02T03:47:58.675Z,95.30
2023-04-02T03:48:58.688Z,95.55
2023-04-02T03:49:58.688Z,95.50
2023-04-02T03:50:58.618Z,95.75
2023-04-02T03:51:58.654Z,96.33
2023-04-02T03:52:58.617Z,95.40
2023-04-02T03:53:58.589Z,95.61
2023-04-02T03:54:58.577Z,96.17
2023-04-02T03:55:58.566Z,95.50
2023-04-02T03:56:58.627Z,95.61
2023-04-02T03:57:58.564Z,95.24
2023-04-02T03:58:58.542Z,96.33
2023-04-02T03:59:58.536Z,96.06
2023-04-02T04:00:58.537Z,96.22
2023-04-02T04:01:58.542Z,95.96
2023-04-02T04:02:58.514Z,96.37
2023-04-02T04:03:58.489Z,96.37
2023-04-02T04:04:58.460Z,95.75
2023-04-02T04:05:58.479Z,95.65
2023-04-02T04:06:58.482Z,95.55
2023-04-02T04:07:58.445Z,95.65
2023-04-02T04:08:58.455Z,95.45
2023-04-02T04:09:58.423Z,95.24
2023-04-02T04:10:58.438Z,95.86
2023-04-02T04:11:58.433Z,95.14
2023-04-02T04:12:58.370Z,95.14
2023-04-02T04:13:58.372Z,94.98
2023-04-02T04:14:58.349Z,95.14
2023-04-02T04:15:58.354Z,96.37
2023-04-02T04:16:58.404Z,96.27
2023-04-02T04:17:58.330Z,95.96
2023-04-02T04:18:58.318Z,96.31
2023-04-02T04:19:58.318Z,95.65
2023-04-02T04:20:58.302Z,96.06
2023-04-02T04:21:58.314Z,95.39
2023-04-02T04:22:58.270Z,96.11
2023-04-02T04:23:58.263Z,95.80
2023-04-02T04:24:58.236Z,95.90
2023-04-02T04:25:58.230Z,96.11
2023-04-02T04:26:58.237Z,96.27
2023-04-02T04:27:58.208Z,95.90
2023-04-02T04:28:58.229Z,95.28
2023-04-02T04:29:58.206Z,95.39
2023-04-02T04:30:58.167Z,95.95
2023-04-02T04:31:58.230Z,96.11
2023-04-02T04:32:58.370Z,96.31
2023-04-02T04:33:58.139Z,95.43
2023-04-02T04:34:58.148Z,95.33
2023-04-02T04:35:58.163Z,95.95
2023-04-02T04:36:58.146Z,96.42
2023-04-02T04:37:58.135Z,95.90
2023-04-02T04:38:58.079Z,95.28
2023-04-02T04:39:58.076Z,95.95
2023-04-02T04:40:58.056Z,95.23
2023-04-02T04:41:58.092Z,95.90
2023-04-02T04:42:58.039Z,96.00
2023-04-02T04:43:58.040Z,95.74
2023-04-02T04:44:58.025Z,96.25
2023-04-02T04:45:58.078Z,96.15
2023-04-02T04:46:58.009Z,95.84
2023-04-02T04:47:58.021Z,95.33
2023-04-02T04:48:57.968Z,95.33
2023-04-02T04:49:57.963Z,95.43
2023-04-02T04:50:57.947Z,95.33
2023-04-02T04:51:57.961Z,95.12
2023-04-02T04:52:57.951Z,95.23
2023-04-02T04:53:57.962Z,95.64
2023-04-02T04:54:57.928Z,95.12
2023-04-02T04:56:06.089Z,94.92
2023-04-02T04:56:58.967Z,95.23
2023-04-02T04:57:57.873Z,95.23
2023-04-02T04:58:57.856Z,95.17
2023-04-02T04:59:57.855Z,95.12
2023-04-02T05:00:57.857Z,95.06
2023-04-02T05:01:57.896Z,94.85
2023-04-02T05:02:57.891Z,94.92
2023-04-02T05:03:57.804Z,94.81
2023-04-02T05:04:57.820Z,95.17
2023-04-02T05:05:57.781Z,94.85
2023-04-02T05:06:57.765Z,94.65
2023-04-02T05:07:59.079Z,95.37
2023-04-02T05:08:57.740Z,94.96
2023-04-02T05:09:57.770Z,94.65
2023-04-02T05:10:57.733Z,94.76
2023-04-02T05:11:57.710Z,94.96
2023-04-02T05:12:57.710Z,95.00
2023-04-02T05:13:57.709Z,94.85
2023-04-02T05:14:57.672Z,95.06
2023-04-02T05:15:59.405Z,94.96
2023-04-02T05:16:57.651Z,95.17
2023-04-02T05:17:57.757Z,94.96
2023-04-02T05:18:57.625Z,95.27
2023-04-02T05:19:57.618Z,94.76
2023-04-02T05:20:57.605Z,94.80
2023-04-02T05:21:57.613Z,95.06
2023-04-02T05:22:57.593Z,94.96
2023-04-02T05:23:57.574Z,95.31
2023-04-02T05:24:57.577Z,95.42
2023-04-02T05:25:57.585Z,94.70
2023-04-02T05:26:57.568Z,94.18
2023-04-02T05:27:57.530Z,94.70
2023-04-02T05:28:57.532Z,95.42
2023-04-02T05:29:57.532Z,95.37
2023-04-02T05:30:57.554Z,95.21
2023-04-02T05:31:57.502Z,95.21
2023-04-02T05:32:57.605Z,94.70
2023-04-02T05:33:57.480Z,95.52
2023-04-02T05:34:57.459Z,94.49
2023-04-02T05:35:57.471Z,95.31
2023-04-02T05:36:57.447Z,94.28
2023-04-02T05:37:57.419Z,95.31
2023-04-02T05:38:57.407Z,94.70
2023-04-02T05:39:57.413Z,94.49
2023-04-02T05:40:57.387Z,94.59
2023-04-02T05:41:57.414Z,94.18
2023-04-02T05:42:57.390Z,94.49
2023-04-02T05:43:57.364Z,94.28
2023-04-02T05:44:57.346Z,94.18
2023-04-02T05:45:57.352Z,94.38
2023-04-02T05:46:57.408Z,94.28
2023-04-02T05:47:57.385Z,94.18
2023-04-02T05:48:57.314Z,94.18
2023-04-02T05:49:57.290Z,94.38
2023-04-02T05:50:57.286Z,94.38
2023-04-02T05:51:57.748Z,93.98
2023-04-02T05:52:57.283Z,94.49
2023-04-02T05:53:57.245Z,94.38
2023-04-02T05:54:57.243Z,94.38
2023-04-02T05:55:57.251Z,94.28
2023-04-02T05:56:57.227Z,94.80
2023-04-02T05:58:21.310Z,94.08
2023-04-02T05:58:58.354Z,93.77
2023-04-02T05:59:57.191Z,94.28
2023-04-02T06:00:57.163Z,93.98
2023-04-02T06:01:57.218Z,94.38
2023-04-02T06:02:57.216Z,94.18
2023-04-02T06:03:57.234Z,94.28
2023-04-02T06:04:57.164Z,94.74
2023-04-02T06:05:57.108Z,95.05
2023-04-02T06:06:57.113Z,95.00
2023-04-02T06:07:57.092Z,95.05
2023-04-02T06:08:57.083Z,95.00
2023-04-02T06:09:57.104Z,94.28
2023-04-02T06:10:57.051Z,95.21
2023-04-02T06:11:57.055Z,94.49
2023-04-02T06:12:57.056Z,94.95
2023-04-02T06:13:57.055Z,94.49
2023-04-02T06:14:57.067Z,94.59
2023-04-02T06:15:56.993Z,94.38
2023-04-02T06:16:57.099Z,94.53
2023-04-02T06:17:57.018Z,93.98
2023-04-02T06:18:56.958Z,94.53
2023-04-02T06:19:56.967Z,94.28
2023-04-02T06:20:56.938Z,94.49
2023-04-02T06:21:56.937Z,94.12
2023-04-02T06:22:56.925Z,94.12
2023-04-02T06:23:56.910Z,94.49
2023-04-02T06:24:56.902Z,94.18
2023-04-02T06:25:56.914Z,94.53
2023-04-02T06:26:56.891Z,94.80
2023-04-02T06:27:56.869Z,94.64
2023-04-02T06:28:56.849Z,94.23
2023-04-02T06:29:56.863Z,94.53
2023-04-02T06:30:56.865Z,94.43
2023-04-02T06:31:56.821Z,94.84
2023-04-02T06:32:56.847Z,94.32
2023-04-02T06:33:56.805Z,94.43
2023-04-02T06:34:56.796Z,94.12
2023-04-02T06:35:56.854Z,94.53
2023-04-02T06:36:56.769Z,95.25
2023-04-02T06:37:56.746Z,95.00
2023-04-02T06:38:56.762Z,95.05
2023-04-02T06:39:56.740Z,95.05
2023-04-02T06:40:58.738Z,94.80
2023-04-02T06:41:56.721Z,95.05
2023-04-02T06:42:56.718Z,95.05
2023-04-02T06:43:56.711Z,95.05
2023-04-02T06:44:56.689Z,95.05
2023-04-02T06:45:56.744Z,95.46
2023-04-02T06:46:56.656Z,95.25
2023-04-02T06:47:56.689Z,94.74
2023-04-02T06:48:56.635Z,95.67
2023-04-02T06:49:56.615Z,95.05
2023-04-02T06:50:56.643Z,95.36
2023-04-02T06:51:56.606Z,95.36
2023-04-02T06:52:56.588Z,95.25
2023-04-02T06:53:56.601Z,95.15
2023-04-02T06:54:56.599Z,95.25
2023-04-02T06:55:56.546Z,95.05
2023-04-02T06:56:56.606Z,94.99
2023-04-02T06:57:56.531Z,95.36
2023-04-02T06:58:56.530Z,95.25
2023-04-02T06:59:56.514Z,95.05
2023-04-02T07:00:56.501Z,95.05
2023-04-02T07:01:56.594Z,95.25
2023-04-02T07:02:56.525Z,95.25
2023-04-02T07:03:56.469Z,95.15
2023-04-02T07:04:56.499Z,94.84
2023-04-02T07:05:56.433Z,94.95
2023-04-02T07:06:56.437Z,95.05
2023-04-02T07:07:56.436Z,95.25
2023-04-02T07:08:56.402Z,95.46
2023-04-02T07:09:56.397Z,94.02
2023-04-02T07:10:56.398Z,94.43
2023-04-02T07:11:56.383Z,94.68
2023-04-02T07:12:56.382Z,94.47
2023-04-02T07:13:56.347Z,93.81
2023-04-02T07:14:56.336Z,93.81
2023-04-02T07:15:56.352Z,94.27
2023-04-02T07:16:56.339Z,94.06
2023-04-02T07:17:56.421Z,93.96
2023-04-02T07:18:56.292Z,94.37
2023-04-02T07:19:56.275Z,94.17
2023-04-02T07:20:56.263Z,94.17
2023-04-02T07:21:56.252Z,93.85
2023-04-02T07:22:56.273Z,93.65
2023-04-02T07:23:56.226Z,94.37
2023-04-02T07:24:56.218Z,94.17
2023-04-02T07:25:56.207Z,94.37
2023-04-02T07:26:56.195Z,94.17
2023-04-02T07:27:56.213Z,94.06
2023-04-02T07:28:56.189Z,94.17
2023-04-02T07:29:56.165Z,93.34
2023-04-02T07:30:56.178Z,93.44
2023-04-02T07:31:56.211Z,93.65
2023-04-02T07:32:56.188Z,93.34
2023-04-02T07:33:56.145Z,93.54
2023-04-02T07:34:56.115Z,94.17
2023-04-02T07:35:56.127Z,94.37
2023-04-02T07:36:56.107Z,94.02
2023-04-02T07:37:56.067Z,93.65
2023-04-02T07:38:56.116Z,93.71
2023-04-02T07:39:56.059Z,93.13
2023-04-02T07:40:56.059Z,93.34
2023-04-02T07:41:56.025Z,93.44
2023-04-02T07:42:56.051Z,93.24
2023-04-02T07:43:56.002Z,93.65
2023-04-02T07:44:56.012Z,92.72
2023-04-02T07:45:55.985Z,93.34
2023-04-02T07:46:56.047Z,93.54
2023-04-02T07:47:56.065Z,93.75
2023-04-02T07:48:55.990Z,93.96
2023-04-02T07:49:55.962Z,94.17
2023-04-02T07:50:55.932Z,94.57
2023-04-02T07:51:55.912Z,94.47
2023-04-02T07:52:55.933Z,94.37
2023-04-02T07:53:56.309Z,93.24
2023-04-02T07:54:55.881Z,93.96
2023-04-02T07:55:56.798Z,93.75
2023-04-02T07:56:55.916Z,93.34
2023-04-02T07:57:55.886Z,93.65
2023-04-02T07:58:55.863Z,93.54
2023-04-02T07:59:55.835Z,93.40
2023-04-02T08:00:55.825Z,93.85
2023-04-02T08:01:55.845Z,92.82
2023-04-02T08:02:55.885Z,93.34
2023-04-02T08:03:55.812Z,93.30
2023-04-02T08:04:55.779Z,93.44
2023-04-02T08:05:55.785Z,93.34
2023-04-02T08:06:55.773Z,93.24
2023-04-02T08:07:55.737Z,93.03
2023-04-02T08:08:55.760Z,93.13
2023-04-02T08:09:55.728Z,93.09
2023-04-02T08:10:55.704Z,92.99
2023-04-02T08:11:55.691Z,92.61
2023-04-02T08:12:55.685Z,93.03
2023-04-02T08:13:55.668Z,93.24
2023-04-02T08:14:55.713Z,93.13
2023-04-02T08:15:55.645Z,93.19
2023-04-02T08:16:55.747Z,93.44
2023-04-02T08:17:55.728Z,93.19
2023-04-02T08:18:55.648Z,93.34
2023-04-02T08:19:55.608Z,93.30
2023-04-02T08:20:55.611Z,93.03
2023-04-02T08:21:55.614Z,92.68
2023-04-02T08:22:55.586Z,93.24
2023-04-02T08:23:55.574Z,92.99
2023-04-02T08:24:55.556Z,93.19
2023-04-02T08:25:55.549Z,93.09
2023-04-02T08:26:55.535Z,92.88
2023-04-02T08:27:55.527Z,92.88
2023-04-02T08:28:55.522Z,92.99
2023-04-02T08:29:55.504Z,92.57
2023-04-02T08:30:55.585Z,92.47
2023-04-02T08:31:55.487Z,92.37
2023-04-02T08:32:55.506Z,92.37
2023-04-02T08:33:55.448Z,91.85
2023-04-02T08:34:55.484Z,92.06
2023-04-02T08:35:55.450Z,92.47
2023-04-02T08:36:55.464Z,92.02
2023-04-02T08:37:55.468Z,92.06
2023-04-02T08:38:55.413Z,91.44
2023-04-02T08:39:55.398Z,91.64
2023-04-02T08:40:55.376Z,91.54
2023-04-02T08:41:55.359Z,91.54
2023-04-02T08:42:55.393Z,91.44
2023-04-02T08:43:55.364Z,90.82
2023-04-02T08:44:55.334Z,91.34
2023-04-02T08:45:55.342Z,91.34
2023-04-02T08:46:55.325Z,91.17
2023-04-02T08:47:55.530Z,91.24
2023-04-02T08:48:55.311Z,90.97
2023-04-02T08:49:55.278Z,91.03
2023-04-02T08:50:55.275Z,91.28
2023-04-02T08:51:55.243Z,91.13
2023-04-02T08:52:55.279Z,91.44
2023-04-02T08:53:55.249Z,91.17
2023-04-02T08:54:55.225Z,91.58
2023-04-02T08:55:55.215Z,91.54
2023-04-02T08:56:55.209Z,90.41
2023-04-02T08:57:55.208Z,91.34
2023-04-02T08:58:55.178Z,91.34
2023-04-02T08:59:55.155Z,90.97
2023-04-02T09:00:55.157Z,91.03
2023-04-02T09:01:55.211Z,90.92
2023-04-02T09:02:55.194Z,91.24
2023-04-02T09:03:55.132Z,91.13
2023-04-02T09:04:55.146Z,91.34
2023-04-02T09:05:55.096Z,91.44
2023-04-02T09:06:55.089Z,91.03
2023-04-02T09:07:55.059Z,91.03
2023-04-02T09:08:55.086Z,90.82
2023-04-02T09:09:55.058Z,90.10
2023-04-02T09:10:55.044Z,90.10
2023-04-02T09:11:55.035Z,90.61
2023-04-02T09:12:55.022Z,91.34
2023-04-02T09:13:55.025Z,90.57
2023-04-02T09:14:54.992Z,91.44
2023-04-02T09:15:55.043Z,90.72
2023-04-02T09:16:54.982Z,91.30
2023-04-02T09:17:55.769Z,90.61
2023-04-02T09:18:54.978Z,91.24
2023-04-02T09:19:54.991Z,90.92
2023-04-02T09:20:54.949Z,91.03
2023-04-02T09:21:54.907Z,90.82
2023-04-02T09:22:54.912Z,90.26
2023-04-02T09:23:54.905Z,91.09
2023-04-02T09:24:54.926Z,90.16
2023-04-02T09:26:03.680Z,89.95
2023-04-02T09:26:55.856Z,90.99
2023-04-02T09:27:54.839Z,90.16
2023-04-02T09:28:54.851Z,90.99
2023-04-02T09:29:54.837Z,90.26
2023-04-02T09:30:54.810Z,90.99
2023-04-02T09:31:54.858Z,90.26
2023-04-02T09:32:54.808Z,89.75
2023-04-02T09:33:54.852Z,90.88
2023-04-02T09:34:54.786Z,90.99
2023-04-02T09:35:54.794Z,89.85
2023-04-02T09:36:54.752Z,89.95
2023-04-02T09:37:54.731Z,90.01
2023-04-02T09:38:54.741Z,90.73
2023-04-02T09:39:54.735Z,90.26
2023-04-02T09:40:54.727Z,89.54
2023-04-02T09:42:05.120Z,89.34
2023-04-02T09:42:55.679Z,89.44
2023-04-02T09:43:54.675Z,89.65
2023-04-02T09:44:54.671Z,89.34
2023-04-02T09:45:54.657Z,89.65
2023-04-02T09:46:54.664Z,89.09
2023-04-02T09:47:54.655Z,88.92
2023-04-02T09:48:54.614Z,88.62
2023-04-02T09:49:54.610Z,89.23
2023-04-02T09:50:54.600Z,89.13
2023-04-02T09:51:54.593Z,88.82
2023-04-02T09:52:54.570Z,89.03
2023-04-02T09:53:54.573Z,88.68
2023-04-02T09:54:54.552Z,88.72
2023-04-02T09:55:54.576Z,88.92
2023-04-02T09:56:54.556Z,89.34
2023-04-02T09:57:54.525Z,89.09
2023-04-02T09:58:54.509Z,89.09
2023-04-02T09:59:54.483Z,88.68
2023-04-02T10:00:54.544Z,88.57
2023-04-02T10:01:54.476Z,87.96
2023-04-02T10:02:54.562Z,88.26
2023-04-02T10:03:54.488Z,89.05
2023-04-02T10:04:54.449Z,89.15
2023-04-02T10:05:54.444Z,88.12
2023-04-02T10:06:54.412Z,87.60
2023-04-02T10:07:54.403Z,87.92
2023-04-02T10:08:54.395Z,88.17
2023-04-02T10:09:54.388Z,87.81
2023-04-02T10:10:54.365Z,87.81
2023-04-02T10:11:54.342Z,88.64
2023-04-02T10:12:54.336Z,87.51
2023-04-02T10:13:54.356Z,88.12
2023-04-02T10:14:54.324Z,87.92
2023-04-02T10:15:54.375Z,87.51
2023-04-02T10:16:54.371Z,87.40
2023-04-02T10:17:54.302Z,87.57
2023-04-02T10:18:54.284Z,87.87
2023-04-02T10:19:54.285Z,87.36
2023-04-02T10:20:54.277Z,87.26
2023-04-02T10:21:54.250Z,87.46
2023-04-02T10:22:54.244Z,87.77
2023-04-02T10:23:54.220Z,87.51
2023-04-02T10:24:54.211Z,86.85
2023-04-02T10:25:54.223Z,86.27
2023-04-02T10:26:54.191Z,86.85
2023-04-02T10:27:54.169Z,86.16
2023-04-02T10:28:54.175Z,85.86
2023-04-02T10:29:54.184Z,86.64
2023-04-02T10:30:54.163Z,86.47
2023-04-02T10:31:54.148Z,86.13
2023-04-02T10:32:54.140Z,86.47
2023-04-02T10:33:54.123Z,85.92
2023-04-02T10:34:54.107Z,86.33
2023-04-02T10:35:54.128Z,85.30
2023-04-02T10:36:54.074Z,86.54
2023-04-02T10:37:54.078Z,86.33
2023-04-02T10:38:54.056Z,85.61
2023-04-02T10:39:54.037Z,85.20
2023-04-02T10:40:56.465Z,85.61
2023-04-02T10:41:54.029Z,84.79
2023-04-02T10:42:54.004Z,85.41
2023-04-02T10:43:53.990Z,85.47
2023-04-02T10:44:53.997Z,85.47
2023-04-02T10:45:54.045Z,85.36
2023-04-02T10:46:53.978Z,85.36
2023-04-02T10:47:53.985Z,85.06
2023-04-02T10:48:53.948Z,85.06
2023-04-02T10:49:53.939Z,85.47
2023-04-02T10:50:53.930Z,84.30
2023-04-02T10:51:53.903Z,83.89
2023-04-02T10:52:55.492Z,83.99
2023-04-02T10:53:53.884Z,84.05
2023-04-02T10:54:53.875Z,84.40
2023-04-02T10:55:54.834Z,83.68
2023-04-02T10:56:53.903Z,84.05
2023-04-02T10:57:53.836Z,83.78
2023-04-02T10:58:55.606Z,83.23
2023-04-02T10:59:53.817Z,83.75
2023-04-02T11:00:53.828Z,83.64
2023-04-02T11:01:53.906Z,83.99
2023-04-02T11:02:53.861Z,83.75
2023-04-02T11:03:54.180Z,82.51
2023-04-02T11:04:54.372Z,83.23
2023-04-02T11:05:53.765Z,83.03
2023-04-02T11:07:03.530Z,83.40
2023-04-02T11:07:54.740Z,84.12
2023-04-02T11:08:53.720Z,83.70
2023-04-02T11:09:53.700Z,83.19
2023-04-02T11:10:53.721Z,82.89
2023-04-02T11:11:53.694Z,82.99
2023-04-02T11:12:53.671Z,82.75
2023-04-02T11:13:53.662Z,82.57
2023-04-02T11:14:53.657Z,82.33
2023-04-02T11:15:53.851Z,82.95
2023-04-02T11:16:53.636Z,83.01
2023-04-02T11:17:53.699Z,82.19
2023-04-02T11:18:53.619Z,82.40
2023-04-02T11:19:53.612Z,80.96
2023-04-02T11:20:53.599Z,81.27
2023-04-02T11:21:59.249Z,80.92
2023-04-02T11:22:54.565Z,80.82
2023-04-02T11:23:53.570Z,80.00
2023-04-02T11:24:53.591Z,79.80
2023-04-02T11:25:53.522Z,80.31
2023-04-02T11:26:53.759Z,79.69
2023-04-02T11:27:53.552Z,80.00
2023-04-02T11:28:53.487Z,80.00
2023-04-02T11:29:53.489Z,79.55
2023-04-02T11:30:53.480Z,79.18
2023-04-02T11:31:53.491Z,79.18
2023-04-02T11:32:53.464Z,79.59
2023-04-02T11:33:53.482Z,78.87
2023-04-02T11:35:03.445Z,79.49
2023-04-02T11:35:54.472Z,78.67
2023-04-02T11:36:53.403Z,78.87
2023-04-02T11:37:53.403Z,78.81
2023-04-02T11:38:54.874Z,78.60
2023-04-02T11:39:53.379Z,78.81
2023-04-02T11:40:53.379Z,78.91
2023-04-02T11:41:53.343Z,78.81
2023-04-02T11:42:53.342Z,79.66
2023-04-02T11:43:53.328Z,80.04
2023-04-02T11:44:53.335Z,79.83
2023-04-02T11:45:53.666Z,78.94
2023-04-02T11:46:53.336Z,79.52
2023-04-02T11:47:53.356Z,80.38
2023-04-02T11:48:53.261Z,80.58
2023-04-02T11:49:53.323Z,80.45
2023-04-02T11:50:53.237Z,79.66
2023-04-02T11:52:05.404Z,79.05
2023-04-02T11:52:54.228Z,78.43
2023-04-02T11:53:53.210Z,79.15
2023-04-02T11:54:53.206Z,80.24
2023-04-02T11:55:53.194Z,80.07
2023-04-02T11:56:53.195Z,80.04
2023-04-02T11:57:53.193Z,80.55
2023-04-02T11:58:53.159Z,80.04
2023-04-02T11:59:53.159Z,80.04
2023-04-02T12:00:53.122Z,79.93
2023-04-02T12:01:53.132Z,79.66
2023-04-02T12:02:53.154Z,79.93
2023-04-02T12:03:53.107Z,79.87
2023-04-02T12:04:53.166Z,79.56
2023-04-02T12:05:53.092Z,79.11
2023-04-02T12:06:53.065Z,79.22
2023-04-02T12:07:53.065Z,80.04
2023-04-02T12:08:57.879Z,79.73
2023-04-02T12:09:54.024Z,79.93
2023-04-02T12:10:53.020Z,80.04
2023-04-02T12:11:53.025Z,79.73
2023-04-02T12:12:52.989Z,79.63
2023-04-02T12:13:53.019Z,79.01
2023-04-02T12:14:52.974Z,79.32
2023-04-02T12:15:52.965Z,79.63
2023-04-02T12:16:52.967Z,79.01
2023-04-02T12:17:52.975Z,79.01
2023-04-02T12:18:52.936Z,78.81
2023-04-02T12:19:52.913Z,79.11
2023-04-02T12:20:52.913Z,78.56
2023-04-02T12:21:52.920Z,78.25
2023-04-02T12:22:52.873Z,78.25
2023-04-02T12:23:52.895Z,78.46
2023-04-02T12:24:52.860Z,78.56
2023-04-02T12:25:52.846Z,78.25
2023-04-02T12:26:52.842Z,78.25
2023-04-02T12:27:52.836Z,77.54
2023-04-02T12:28:52.841Z,78.25
2023-04-02T12:29:52.794Z,78.16
2023-04-02T12:30:52.819Z,78.39
2023-04-02T12:31:52.777Z,78.81
2023-04-02T12:32:52.817Z,78.87
2023-04-02T12:33:52.767Z,79.01
2023-04-02T12:34:52.762Z,78.39
2023-04-02T12:35:52.786Z,77.88
2023-04-02T12:36:52.714Z,78.91
2023-04-02T12:37:52.734Z,78.60
2023-04-02T12:38:52.715Z,77.68
2023-04-02T12:39:52.713Z,79.73
2023-04-02T12:40:52.680Z,78.33
2023-04-02T12:41:52.680Z,78.23
2023-04-02T12:42:52.654Z,78.85
2023-04-02T12:43:52.634Z,78.64
2023-04-02T12:44:52.650Z,78.94
2023-04-02T12:45:52.683Z,78.85
2023-04-02T12:46:52.600Z,78.74
2023-04-02T12:47:52.638Z,79.15
2023-04-02T12:48:52.591Z,78.88
2023-04-02T12:49:52.608Z,78.36
2023-04-02T12:50:52.552Z,79.19
2023-04-02T12:51:52.552Z,78.78